createdAt,value
2023-10-20T00:00:55.885Z,25.08
2023-10-20T00:03:22.879Z,23.30
2023-10-20T00:05:49.866Z,23.30
2023-10-20T00:08:16.842Z,23.42
2023-10-20T00:10:43.802Z,26.17
2023-10-20T00:13:10.732Z,26.58
2023-10-20T00:15:38.325Z,28.20
2023-10-20T00:18:05.778Z,24.73
2023-10-20T00:20:32.889Z,27.23
2023-10-20T00:22:59.849Z,27.55
2023-10-20T00:25:26.795Z,25.38
2023-10-20T00:27:53.666Z,31.30
2023-10-20T00:30:20.741Z,28.77
2023-10-20T00:32:47.691Z,29.98
2023-10-20T00:35:15.144Z,31.15
2023-10-20T00:37:43.200Z,31.02
2023-10-20T00:40:12.828Z,27.85
2023-10-20T00:42:39.848Z,32.50
2023-10-20T00:45:08.386Z,27.48
2023-10-20T00:47:36.379Z,32.22
2023-10-20T00:50:03.691Z,30.95
2023-10-20T00:52:31.002Z,31.45
2023-10-20T00:55:00.293Z,27.53
2023-10-20T00:57:27.464Z,28.98
2023-10-20T00:59:54.546Z,33.55
2023-10-20T01:02:21.723Z,31.40
2023-10-20T01:04:49.189Z,38.63
2023-10-20T01:07:16.474Z,34.03
2023-10-20T01:09:46.472Z,31.80
2023-10-20T01:12:13.371Z,36.70
2023-10-20T01:14:40.546Z,34.72
2023-10-20T01:17:08.448Z,38.90
2023-10-20T01:19:35.355Z,35.53
2023-10-20T01:22:02.270Z,32.85
2023-10-20T01:24:29.381Z,41.55
2023-10-20T01:26:56.571Z,39.83
2023-10-20T01:29:23.553Z,34.22
2023-10-20T01:31:51.345Z,38.67
2023-10-20T01:34:18.473Z,43.33
2023-10-20T01:36:45.494Z,49.03
2023-10-20T01:39:12.394Z,41.60
2023-10-20T01:41:39.952Z,44.30
2023-10-20T01:44:06.969Z,46.03
2023-10-20T01:46:34.137Z,46.00
2023-10-20T01:49:01.092Z,54.25
2023-10-20T01:51:28.267Z,43.38
2023-10-20T01:53:56.046Z,56.63
2023-10-20T01:56:23.835Z,55.33
2023-10-20T01:58:50.856Z,58.08
2023-10-20T02:01:17.857Z,50.95
2023-10-20T02:03:44.907Z,54.95
2023-10-20T02:06:12.166Z,54.80
2023-10-20T02:08:39.126Z,56.70
2023-10-20T02:11:06.190Z,52.20
2023-10-20T02:13:33.225Z,62.20
2023-10-20T02:16:01.008Z,63.38
2023-10-20T02:18:28.510Z,61.00
2023-10-20T02:21:01.071Z,59.20
2023-10-20T02:23:28.745Z,54.70
2023-10-20T02:26:05.067Z,61.40
2023-10-20T02:28:36.168Z,53.47
2023-10-20T02:31:17.119Z,60.58
2023-10-20T02:33:44.642Z,58.47
2023-10-20T02:36:20.245Z,55.80
2023-10-20T02:38:48.621Z,65.90
2023-10-20T02:41:16.363Z,57.30
2023-10-20T02:43:43.270Z,55.67
2023-10-20T02:46:10.434Z,62.47
2023-10-20T02:48:37.422Z,61.03
2023-10-20T02:51:13.060Z,60.45
2023-10-20T02:53:42.105Z,63.33
2023-10-20T02:56:12.176Z,54.97
2023-10-20T02:58:40.022Z,58.60
2023-10-20T03:01:08.364Z,60.75
2023-10-20T03:03:35.675Z,59.47
2023-10-20T03:06:05.073Z,51.78
2023-10-20T03:08:33.015Z,57.17
2023-10-20T03:11:00.405Z,57.83
2023-10-20T03:13:29.204Z,57.20
2023-10-20T03:15:56.115Z,56.17
2023-10-20T03:18:23.087Z,55.22
2023-10-20T03:20:51.041Z,51.47
2023-10-20T03:23:19.035Z,50.00
2023-10-20T03:25:46.113Z,52.75
2023-10-20T03:28:12.980Z,46.83
2023-10-20T03:30:41.665Z,57.20
2023-10-20T03:33:10.635Z,57.05
2023-10-20T03:35:38.151Z,52.27
2023-10-20T03:38:06.228Z,54.80
2023-10-20T03:40:33.194Z,51.42
2023-10-20T03:43:00.134Z,53.80
2023-10-20T03:45:27.071Z,55.38
2023-10-20T03:47:55.140Z,54.17
2023-10-20T03:50:22.086Z,53.65
2023-10-20T03:52:49.815Z,54.53
2023-10-20T03:55:16.906Z,53.38
2023-10-20T03:57:46.084Z,50.42
2023-10-20T04:00:15.335Z,52.83
2023-10-20T04:02:42.589Z,50.15
2023-10-20T04:05:09.861Z,47.75
2023-10-20T04:07:36.792Z,51.50
2023-10-20T04:10:03.828Z,54.78
2023-10-20T04:12:30.823Z,54.73
2023-10-20T04:14:57.795Z,52.97
2023-10-20T04:17:25.039Z,51.80
2023-10-20T04:19:52.058Z,51.15
2023-10-20T04:22:19.018Z,54.35
2023-10-20T04:24:45.950Z,50.70
2023-10-20T04:27:13.436Z,49.88
2023-10-20T04:29:40.426Z,46.67
2023-10-20T04:32:07.479Z,51.05
2023-10-20T04:34:34.441Z,50.63
2023-10-20T04:37:01.496Z,45.53
2023-10-20T04:39:28.416Z,48.58
2023-10-20T04:41:55.399Z,47.03
2023-10-20T04:44:22.534Z,49.80
2023-10-20T04:46:50.896Z,46.42
2023-10-20T04:49:17.648Z,46.77
2023-10-20T04:51:44.478Z,47.13
2023-10-20T04:54:11.280Z,49.85
2023-10-20T04:56:38.203Z,50.85
2023-10-20T04:59:05.190Z,56.83
2023-10-20T05:01:33.713Z,52.20
2023-10-20T05:04:00.782Z,56.90
2023-10-20T05:06:27.770Z,55.45
2023-10-20T05:08:54.818Z,52.70
2023-10-20T05:11:21.703Z,54.03
2023-10-20T05:13:48.546Z,42.10
2023-10-20T05:16:15.448Z,44.20
2023-10-20T05:18:42.502Z,42.17
2023-10-20T05:21:09.968Z,37.13
2023-10-20T05:23:37.605Z,40.70
2023-10-20T05:26:04.987Z,40.97
2023-10-20T05:28:32.085Z,32.00
2023-10-20T05:30:59.194Z,40.50
2023-10-20T05:33:26.204Z,36.22
2023-10-20T05:35:54.142Z,37.28
2023-10-20T05:38:20.993Z,38.60
2023-10-20T05:41:01.485Z,38.35
2023-10-20T05:43:29.038Z,36.42
2023-10-20T05:45:56.056Z,36.83
2023-10-20T05:48:22.932Z,38.10
2023-10-20T05:50:58.801Z,45.97
2023-10-20T05:53:26.466Z,39.88
2023-10-20T05:55:53.976Z,37.22
2023-10-20T05:58:20.815Z,33.55
2023-10-20T06:01:01.782Z,32.00
2023-10-20T06:03:29.751Z,34.53
2023-10-20T06:06:01.023Z,31.70
2023-10-20T06:08:29.456Z,36.05
2023-10-20T06:11:07.013Z,35.58
2023-10-20T06:13:35.817Z,36.05
2023-10-20T06:16:10.508Z,36.67
2023-10-20T06:18:39.864Z,32.95
2023-10-20T06:21:12.398Z,33.55
2023-10-20T06:23:39.210Z,32.00
2023-10-20T06:26:06.243Z,35.08
2023-10-20T06:28:33.563Z,31.83
2023-10-20T06:31:00.403Z,32.55
2023-10-20T06:33:27.846Z,30.23
2023-10-20T06:35:54.869Z,32.05
2023-10-20T06:38:23.515Z,32.70
2023-10-20T06:40:50.493Z,31.07
2023-10-20T06:43:17.896Z,34.20
2023-10-20T06:45:46.021Z,31.95
2023-10-20T06:48:12.935Z,31.05
2023-10-20T06:50:40.128Z,31.73
2023-10-20T06:53:07.115Z,30.67
2023-10-20T06:58:24.230Z,32.60
2023-10-20T07:00:51.043Z,28.73
2023-10-20T07:03:18.022Z,29.15
2023-10-20T07:05:45.737Z,31.30
2023-10-20T07:08:12.740Z,32.25
2023-10-20T07:10:39.624Z,36.42
2023-10-20T07:13:07.146Z,35.45
2023-10-20T07:15:37.180Z,44.47
2023-10-20T07:18:05.138Z,38.40
2023-10-20T07:20:33.043Z,43.22
2023-10-20T07:23:00.877Z,35.30
2023-10-20T07:25:28.664Z,38.65
2023-10-20T07:27:56.224Z,42.95
2023-10-20T07:30:24.358Z,41.80
2023-10-20T07:32:52.057Z,40.80
2023-10-20T07:35:19.512Z,37.75
2023-10-20T07:37:46.547Z,36.30
2023-10-20T07:40:13.788Z,32.20
2023-10-20T07:42:42.049Z,36.33
2023-10-20T07:45:09.723Z,36.22
2023-10-20T07:47:36.723Z,38.60
2023-10-20T07:50:04.263Z,33.55
2023-10-20T07:52:32.408Z,35.53
2023-10-20T07:54:59.262Z,36.73
2023-10-20T07:57:26.130Z,37.72
2023-10-20T07:59:52.989Z,34.55
2023-10-20T08:02:19.844Z,37.50
2023-10-20T08:04:46.980Z,36.70
2023-10-20T08:07:13.994Z,39.37
2023-10-20T08:09:41.045Z,40.17
2023-10-20T08:12:07.918Z,39.90
2023-10-20T08:14:34.803Z,44.28
2023-10-20T08:17:01.813Z,46.90
2023-10-20T08:19:28.631Z,36.83
2023-10-20T08:21:55.586Z,41.78
2023-10-20T08:24:22.543Z,34.95
2023-10-20T08:26:50.006Z,33.85
2023-10-20T08:29:16.885Z,38.95
2023-10-20T08:31:43.799Z,39.27
2023-10-20T08:34:10.721Z,40.88
2023-10-20T08:36:37.639Z,38.83
2023-10-20T08:39:04.796Z,38.13
2023-10-20T08:41:31.652Z,39.38
2023-10-20T08:43:58.737Z,37.47
2023-10-20T08:46:27.036Z,26.52
2023-10-20T08:48:55.029Z,22.70
2023-10-20T08:51:22.828Z,10.82
2023-10-20T08:53:49.677Z,11.00
2023-10-20T08:56:16.684Z,9.03
2023-10-20T08:58:46.764Z,9.07
2023-10-20T09:01:14.846Z,11.27
2023-10-20T09:03:45.196Z,5.88
2023-10-20T09:06:14.444Z,7.05
2023-10-20T09:08:42.677Z,13.63
2023-10-20T09:11:10.525Z,10.50
2023-10-20T09:13:39.260Z,6.35
2023-10-20T09:16:15.556Z,9.60
2023-10-20T09:18:49.713Z,11.80
2023-10-20T09:21:25.614Z,7.70
2023-10-20T09:24:01.947Z,9.88
2023-10-20T09:26:31.991Z,10.90
2023-10-20T09:28:59.567Z,9.02
2023-10-20T09:31:29.244Z,9.85
2023-10-20T09:33:56.519Z,7.43
2023-10-20T09:36:23.676Z,9.80
2023-10-20T09:38:55.235Z,10.38
2023-10-20T09:41:27.118Z,16.27
2023-10-20T09:44:08.541Z,11.50
2023-10-20T09:46:54.237Z,9.03
2023-10-20T09:49:24.394Z,8.57
2023-10-20T09:51:54.324Z,7.35
2023-10-20T09:54:33.753Z,11.57
2023-10-20T09:57:01.949Z,16.60
2023-10-20T09:59:29.448Z,9.00
2023-10-20T10:01:57.742Z,8.32
2023-10-20T10:04:29.527Z,11.50
2023-10-20T10:06:56.917Z,6.38
2023-10-20T10:09:23.829Z,7.95
2023-10-20T10:11:55.852Z,9.77
2023-10-20T10:14:24.388Z,10.43
2023-10-20T10:16:53.011Z,6.32
2023-10-20T10:19:20.747Z,9.18
2023-10-20T10:21:51.099Z,8.50
2023-10-20T10:24:20.737Z,15.10
2023-10-20T10:26:57.730Z,8.25
2023-10-20T10:29:52.810Z,6.28
2023-10-20T10:32:24.289Z,6.28
2023-10-20T10:34:56.604Z,7.10
2023-10-20T10:37:35.713Z,7.83
2023-10-20T10:40:22.883Z,7.70
2023-10-20T10:42:53.739Z,7.72
2023-10-20T10:45:24.733Z,7.47
2023-10-20T10:48:03.721Z,9.55
2023-10-20T10:50:31.203Z,14.20
2023-10-20T10:52:58.063Z,7.32
2023-10-20T10:55:25.080Z,4.43
2023-10-20T10:57:53.225Z,8.93
2023-10-20T11:00:20.878Z,8.13
2023-10-20T11:02:48.536Z,8.47
2023-10-20T11:05:17.179Z,9.50
2023-10-20T11:08:04.733Z,7.15
2023-10-20T11:10:33.799Z,5.65
2023-10-20T11:13:28.699Z,9.43
2023-10-20T11:15:55.591Z,9.10
2023-10-20T11:18:22.685Z,5.53
2023-10-20T11:20:49.985Z,8.52
2023-10-20T11:23:16.892Z,5.55
2023-10-20T11:25:43.938Z,8.82
2023-10-20T11:28:11.145Z,5.60
2023-10-20T11:30:40.018Z,7.68
2023-10-20T11:33:07.433Z,7.45
2023-10-20T11:35:34.726Z,6.60
2023-10-20T11:38:02.213Z,6.30
2023-10-20T11:40:30.271Z,8.13
2023-10-20T11:42:57.483Z,6.47
2023-10-20T11:45:25.114Z,5.93
2023-10-20T11:47:52.548Z,10.25
2023-10-20T11:50:19.982Z,6.55
2023-10-20T11:52:47.152Z,8.53
2023-10-20T11:55:14.545Z,6.10
2023-10-20T11:57:42.092Z,3.90
2023-10-20T12:00:10.305Z,5.93
2023-10-20T12:02:41.142Z,4.88
2023-10-20T12:05:08.994Z,11.33
2023-10-20T12:07:36.477Z,10.00
2023-10-20T12:10:04.049Z,7.53
2023-10-20T12:12:30.989Z,6.78
2023-10-20T12:14:58.041Z,6.10
2023-10-20T12:17:25.020Z,5.70
2023-10-20T12:19:51.985Z,8.60
2023-10-20T12:22:18.856Z,6.68
2023-10-20T12:24:45.781Z,4.65
2023-10-20T12:27:14.351Z,5.43
2023-10-20T12:29:41.660Z,7.53
2023-10-20T12:32:08.801Z,7.68
2023-10-20T12:34:35.850Z,12.95
2023-10-20T12:37:02.894Z,6.38
2023-10-20T12:39:29.805Z,6.50
2023-10-20T12:41:56.823Z,7.03
2023-10-20T12:44:23.748Z,9.95
2023-10-20T12:46:50.742Z,8.48
2023-10-20T12:49:17.738Z,5.90
2023-10-20T12:51:44.722Z,7.78
2023-10-20T12:54:11.534Z,9.43
2023-10-20T12:56:38.407Z,7.15
2023-10-20T12:59:05.322Z,8.57
2023-10-20T13:01:32.149Z,12.52
2023-10-20T13:03:59.041Z,13.82
2023-10-20T13:06:25.882Z,6.73
2023-10-20T13:08:52.877Z,10.50
2023-10-20T13:11:19.912Z,12.23
2023-10-20T13:13:46.776Z,12.05
2023-10-20T13:16:13.697Z,13.45
2023-10-20T13:18:40.723Z,12.73
2023-10-20T13:21:07.710Z,12.48
2023-10-20T13:23:34.908Z,11.65
2023-10-20T13:26:02.677Z,12.35
2023-10-20T13:28:29.516Z,9.35
2023-10-20T13:31:08.974Z,14.47
2023-10-20T13:33:36.383Z,16.58
2023-10-20T13:36:04.504Z,17.20
2023-10-20T13:38:33.029Z,16.63
2023-10-20T13:41:00.226Z,20.65
2023-10-20T13:43:27.205Z,16.03
2023-10-20T13:45:54.182Z,41.38
2023-10-20T13:48:21.145Z,14.02
2023-10-20T13:50:48.203Z,13.07
2023-10-20T13:53:15.716Z,16.35
2023-10-20T13:55:43.797Z,15.07
2023-10-20T13:58:10.811Z,41.42
2023-10-20T14:00:37.793Z,22.08
2023-10-20T14:03:05.406Z,11.20
2023-10-20T14:05:33.156Z,27.83
2023-10-20T14:08:01.071Z,19.03
2023-10-20T14:10:28.808Z,11.57
2023-10-20T14:12:57.245Z,11.02
2023-10-20T14:15:25.054Z,13.13
2023-10-20T14:17:52.013Z,9.25
2023-10-20T14:20:19.470Z,16.57
2023-10-20T14:22:46.381Z,13.35
2023-10-20T14:25:13.165Z,12.75
2023-10-20T14:27:40.652Z,11.48
2023-10-20T14:30:08.268Z,11.27
2023-10-20T14:32:35.451Z,15.13
2023-10-20T14:35:02.732Z,12.57
2023-10-20T14:37:30.914Z,8.60
2023-10-20T14:39:58.841Z,15.85
2023-10-20T14:42:25.704Z,13.40
2023-10-20T14:44:52.589Z,10.87
2023-10-20T14:47:19.544Z,29.08
2023-10-20T14:49:46.573Z,14.63
2023-10-20T14:52:13.795Z,12.52
2023-10-20T14:54:42.478Z,12.88
2023-10-20T14:57:09.434Z,14.27
2023-10-20T14:59:36.663Z,22.50
2023-10-20T15:02:06.904Z,15.52
2023-10-20T15:04:34.045Z,14.00
2023-10-20T15:07:01.293Z,8.82
2023-10-20T15:09:28.212Z,15.50
2023-10-20T15:11:55.347Z,11.52
2023-10-20T15:14:22.404Z,9.05
2023-10-20T15:16:49.457Z,11.73
2023-10-20T15:19:17.175Z,11.13
2023-10-20T15:21:44.527Z,8.97
2023-10-20T15:24:11.524Z,12.10
2023-10-20T15:26:38.437Z,9.98
2023-10-20T15:29:05.362Z,10.52
2023-10-20T15:31:32.499Z,11.05
2023-10-20T15:33:59.565Z,11.50
2023-10-20T15:36:26.987Z,9.30
2023-10-20T15:38:53.855Z,13.02
2023-10-20T15:41:20.851Z,13.27
2023-10-20T15:43:47.739Z,8.70
2023-10-20T15:46:14.666Z,12.13
2023-10-20T15:48:42.680Z,9.77
2023-10-20T15:51:10.001Z,11.05
2023-10-20T15:53:37.017Z,10.38
2023-10-20T15:56:04.102Z,8.20
2023-10-20T15:58:30.992Z,11.27
2023-10-20T16:00:59.232Z,11.82
2023-10-20T16:03:26.439Z,8.90
2023-10-20T16:05:53.638Z,13.30
2023-10-20T16:08:20.486Z,10.18
2023-10-20T16:10:47.394Z,10.70
2023-10-20T16:13:14.342Z,8.95
2023-10-20T16:15:41.204Z,8.50
2023-10-20T16:18:08.223Z,10.48
2023-10-20T16:20:35.548Z,14.82
2023-10-20T16:23:02.506Z,12.67
2023-10-20T16:25:29.496Z,12.45
2023-10-20T16:27:56.537Z,11.88
2023-10-20T16:30:23.537Z,11.90
2023-10-20T16:32:50.771Z,12.38
2023-10-20T16:35:17.910Z,15.00
2023-10-20T16:37:46.227Z,9.65
2023-10-20T16:40:13.785Z,13.90
2023-10-20T16:42:41.032Z,7.82
2023-10-20T16:45:08.646Z,10.98
2023-10-20T16:47:35.887Z,14.43
2023-10-20T16:50:03.208Z,12.10
2023-10-20T16:52:32.365Z,11.20
2023-10-20T16:54:59.506Z,11.90
2023-10-20T16:57:26.925Z,10.85
2023-10-20T16:59:54.300Z,11.50
2023-10-20T17:02:22.074Z,15.40
2023-10-20T17:04:49.237Z,9.60
2023-10-20T17:07:16.409Z,14.07
2023-10-20T17:09:43.464Z,13.90
2023-10-20T17:12:11.177Z,12.33
2023-10-20T17:14:38.364Z,13.55
2023-10-20T17:17:05.402Z,12.43
2023-10-20T17:19:32.578Z,11.60
2023-10-20T17:21:59.665Z,11.98
2023-10-20T17:24:26.938Z,16.53
2023-10-20T17:26:53.914Z,14.25
2023-10-20T17:29:22.601Z,13.63
2023-10-20T17:31:50.297Z,17.48
2023-10-20T17:34:17.930Z,17.73
2023-10-20T17:36:45.580Z,16.57
2023-10-20T17:39:12.662Z,16.33
2023-10-20T17:41:40.301Z,19.05
2023-10-20T17:44:07.701Z,17.10
2023-10-20T17:46:35.114Z,14.80
2023-10-20T17:49:02.583Z,14.17
2023-10-20T17:51:29.982Z,14.55
2023-10-20T17:53:58.133Z,16.23
2023-10-20T17:56:26.252Z,21.38
2023-10-20T17:58:53.442Z,16.65
2023-10-20T18:01:21.646Z,19.63
2023-10-20T18:03:49.386Z,26.17
2023-10-20T18:06:21.406Z,27.05
2023-10-20T18:08:51.559Z,22.20
2023-10-20T18:11:20.989Z,14.38
2023-10-20T18:13:50.279Z,17.47
2023-10-20T18:16:21.220Z,17.20
2023-10-20T18:18:50.624Z,14.57
2023-10-20T18:21:20.941Z,13.73
2023-10-20T18:23:49.236Z,14.13
2023-10-20T18:26:16.971Z,14.97
2023-10-20T18:28:44.610Z,14.85
2023-10-20T18:31:16.743Z,11.25
2023-10-20T18:33:48.139Z,12.68
2023-10-20T18:36:15.859Z,15.50
2023-10-20T18:38:43.745Z,14.80
2023-10-20T18:41:18.023Z,12.23
2023-10-20T18:43:46.024Z,10.52
2023-10-20T18:46:14.441Z,13.38
2023-10-20T18:48:42.729Z,16.27
2023-10-20T18:51:12.490Z,15.13
2023-10-20T18:53:42.531Z,9.52
2023-10-20T18:56:10.911Z,12.73
2023-10-20T18:58:39.171Z,10.38
2023-10-20T19:03:51.826Z,9.17
2023-10-20T19:06:22.568Z,15.93
2023-10-20T19:08:52.256Z,11.25
2023-10-20T19:11:20.797Z,13.13
2023-10-20T19:13:55.896Z,12.32
2023-10-20T19:16:24.158Z,19.17
2023-10-20T19:18:54.162Z,10.18
2023-10-20T19:21:23.086Z,15.88
2023-10-20T19:23:51.213Z,14.30
2023-10-20T19:26:19.505Z,12.02
2023-10-20T19:28:47.915Z,12.83
2023-10-20T19:31:15.386Z,13.23
2023-10-20T19:33:42.894Z,13.98
2023-10-20T19:36:11.094Z,15.25
2023-10-20T19:38:39.174Z,13.77
2023-10-20T19:41:07.605Z,13.03
2023-10-20T19:43:34.663Z,10.90
2023-10-20T19:46:02.741Z,14.32
2023-10-20T19:48:30.152Z,14.77
2023-10-20T19:50:58.561Z,14.45
2023-10-20T19:53:26.410Z,16.60
2023-10-20T19:55:53.637Z,16.05
2023-10-20T19:58:21.877Z,14.02
2023-10-20T20:00:49.740Z,16.80
2023-10-20T20:03:16.980Z,15.52
2023-10-20T20:05:44.283Z,13.27
2023-10-20T20:08:11.489Z,13.40
2023-10-20T20:10:38.494Z,16.58
2023-10-20T20:13:06.553Z,17.23
2023-10-20T20:15:33.641Z,11.98
2023-10-20T20:18:00.685Z,15.60
2023-10-20T20:20:27.866Z,17.63
2023-10-20T20:22:55.108Z,13.73
2023-10-20T20:25:22.270Z,17.80
2023-10-20T20:27:49.574Z,13.73
2023-10-20T20:30:16.917Z,12.50
2023-10-20T20:32:44.149Z,11.85
2023-10-20T20:35:11.146Z,14.05
2023-10-20T20:37:38.115Z,10.15
2023-10-20T20:40:06.617Z,16.25
2023-10-20T20:42:33.560Z,15.40
2023-10-20T20:45:00.541Z,13.75
2023-10-20T20:47:27.524Z,14.38
2023-10-20T20:49:54.473Z,11.18
2023-10-20T20:52:21.409Z,11.55
2023-10-20T20:54:48.321Z,15.23
2023-10-20T20:57:15.199Z,15.55
2023-10-20T20:59:42.252Z,12.43
2023-10-20T21:02:09.281Z,17.00
2023-10-20T21:04:36.296Z,11.35
2023-10-20T21:07:04.264Z,11.60
2023-10-20T21:09:32.713Z,15.30
2023-10-20T21:11:59.714Z,12.65
2023-10-20T21:14:26.786Z,15.32
2023-10-20T21:16:54.268Z,13.13
2023-10-20T21:19:21.214Z,11.43
2023-10-20T21:21:48.177Z,12.85
2023-10-20T21:24:14.996Z,12.55
2023-10-20T21:26:42.151Z,13.52
2023-10-20T21:29:09.056Z,19.15
2023-10-20T21:31:35.958Z,12.57
2023-10-20T21:34:02.896Z,16.20
2023-10-20T21:36:30.176Z,15.85
2023-10-20T21:38:57.162Z,12.77
2023-10-20T21:41:24.353Z,18.05
2023-10-20T21:43:51.262Z,12.93
2023-10-20T21:46:18.211Z,14.02
2023-10-20T21:48:45.310Z,14.85
2023-10-20T21:51:12.412Z,14.00
2023-10-20T21:53:40.165Z,17.40
2023-10-20T21:56:09.337Z,12.87
2023-10-20T21:58:37.118Z,12.75
2023-10-20T22:01:05.718Z,13.07
2023-10-20T22:03:32.978Z,14.43
2023-10-20T22:06:01.230Z,11.98
2023-10-20T22:08:28.173Z,14.03
2023-10-20T22:10:55.245Z,12.73
2023-10-20T22:13:22.267Z,13.27
2023-10-20T22:15:49.812Z,14.52
2023-10-20T22:18:16.905Z,12.52
2023-10-20T22:20:44.560Z,12.87
2023-10-20T22:23:12.054Z,11.20
2023-10-20T22:25:39.697Z,24.90
2023-10-20T22:28:07.134Z,16.35
2023-10-20T22:30:34.279Z,16.45
2023-10-20T22:33:01.416Z,9.27
2023-10-20T22:35:28.611Z,13.40
2023-10-20T22:37:55.642Z,14.95
2023-10-20T22:40:22.787Z,12.40
2023-10-20T22:42:49.930Z,15.95
2023-10-20T22:45:16.991Z,12.73
2023-10-20T22:47:44.074Z,15.02
2023-10-20T22:50:11.090Z,15.98
2023-10-20T22:52:38.062Z,15.57
2023-10-20T22:55:05.307Z,13.57
2023-10-20T22:57:32.331Z,15.63
2023-10-20T22:59:59.268Z,18.58
2023-10-20T23:02:26.250Z,11.30
2023-10-20T23:04:53.217Z,12.45
2023-10-20T23:07:20.387Z,14.07
2023-10-20T23:09:47.341Z,17.37
2023-10-20T23:12:14.279Z,15.90
2023-10-20T23:14:41.285Z,12.52
2023-10-20T23:17:08.357Z,12.45
2023-10-20T23:19:37.438Z,10.63
2023-10-20T23:22:04.761Z,21.67
2023-10-20T23:24:31.707Z,13.02
2023-10-20T23:26:58.643Z,12.70
2023-10-20T23:29:25.617Z,16.20
2023-10-20T23:31:52.625Z,17.13
2023-10-20T23:34:19.518Z,16.20
2023-10-20T23:36:46.380Z,17.10
2023-10-20T23:39:13.435Z,14.82
2023-10-20T23:41:40.446Z,13.70
2023-10-20T23:44:07.517Z,12.38
2023-10-20T23:46:34.401Z,13.07
2023-10-20T23:49:02.502Z,14.35
2023-10-20T23:51:29.562Z,15.75
2023-10-20T23:53:56.511Z,14.02
2023-10-20T23:56:23.645Z,15.30
2023-10-20T23:58:50.524Z,18.20
